ADDS METAR Data INFO
IDs: Format: Raw Decoded Include TAF

Data at: 1113 UTC 13 Dec 2017

KALB 131051Z 29012G19KT 10SM SCT034 OVC085 M08/M14 A2941 RMK AO2 SLP963 T10831144
KALB 130951Z 29010G24KT 10SM OVC080 M08/M14 A2942 RMK AO2 SLP967 T10781144
KALB 130851Z 27013KT 10SM OVC070 M08/M15 A2944 RMK AO2 SLP972 T10781150 58003
KALB 130751Z 28010G19KT 10SM OVC070 M07/M16 A2945 RMK AO2 PK WND 29026/0709 SLP977 T10721156
KALB 130651Z 28014G24KT 10SM OVC070 M07/M15 A2946 RMK AO2 PK WND 27026/0600 SLP979 T10721150
KALB 130551Z 30017G23KT 10SM OVC060 M07/M16 A2945 RMK AO2 PK WND 31034/0507 SLP974 4/001 T10671156 11011 21067 58008
KALB 130451Z 29022G34KT 10SM OVC065 M06/M16 A2945 RMK AO2 PK WND 29034/0448 SLP977 T10561161 400391056
KALB 130351Z 29019G27KT 10SM OVC075 M04/M13 A2947 RMK AO2 PK WND 30035/0306 SLP983 T10441128
KALB 130251Z 29025G35KT 10SM FEW021 OVC070 M03/M11 A2947 RMK AO2 PK WND 29035/0251 SLP982 T10331111 50003
KALB 130151Z 30016G27KT 10SM FEW021 BKN080 OVC100 M02/M09 A2948 RMK AO2 PK WND 30029/0056 SLP984 T10221094
KALB 130051Z 29018G28KT 10SM FEW021 FEW049 OVC080 M02/M08 A2947 RMK AO2 PK WND 30030/0021 SLP982 T10171083
KALB 122351Z 29017G24KT 10SM FEW021 SCT049 OVC080 M01/M07 A2946 RMK AO2 PK WND 29031/2333 SNE41 SLP979 4/001 P0000 60012 I6000 T10111067 10022 21011 53016
KALB 122251Z 29023G27KT 9SM -SN FEW005 SCT021 OVC049 00/M04 A2945 RMK AO2 PK WND 29029/2237 SLP975 P0000 T00001039
KALB 122240Z 30019G29KT 10SM -SN FEW005 SCT021 OVC049 01/M03 A2944 RMK AO2 PK WND 29029/2237 P0000 T00061033
KALB 122151Z 29013KT 4SM -SN FEW005 BKN016 OVC025 02/M01 A2942 RMK AO2 RAE50SNB33 SLP967 P0003 I1000 T00171011
KALB 122051Z 19006KT 1 1/4SM -RA BR SCT007 SCT010 OVC025 02/01 A2941 RMK AO2 SFC VIS 1 1/2 SLP963 P0004 60009 T00220006 56006
KALB 122047Z 23004KT 1 1/4SM -RA BR SCT007 SCT010 OVC025 02/01 A2941 RMK AO2 SFC VIS 1 3/4 VIS 1 1/2V2 P0003
KALB 121958Z 20004KT 1 1/4SM -RA BR SCT004 BKN010 OVC025 02/01 A2942 RMK AO2 SFC VIS 1 3/4 VIS 1 1/2V2 P0000 T00170006
KALB 121951Z 20003KT 2SM -RA BR SCT004 BKN010 OVC025 02/01 A2942 RMK AO2 SLP965 P0004 T00220011
KALB 121906Z 00000KT 2SM -RA BR SCT004 BKN010 OVC018 02/01 A2943 RMK AO2 SFC VIS 2 1/2 VIS 2V3 P0000 T00170006
KALB 121851Z 00000KT 3SM -RA BR SCT006 BKN016 OVC036 02/01 A2943 RMK AO2 SFC VIS 4 RAB1755 SLP969 P0001 T00170006
KALB 121826Z 17003KT 3SM -RA BR SCT006 BKN016 OVC032 02/01 A2944 RMK AO2 RAB1755 P0001 T00170006
KALB 121751Z 22005KT 5SM BR FEW008 SCT016 OVC070 02/00 A2946 RMK AO2 RAE39 SLP978 4/002 933002 PRESENT WX VCSH P0000 60004 T00170000 10017 21011 56027
KALB 121712Z 17007KT 6SM -RA BR FEW006 SCT016 OVC055 02/01 A2947 RMK AO2 SCT V BKN P0000 T00170006 $
KALB 121651Z 17006KT 5SM -RA BR FEW006 BKN016 OVC036 02/00 A2949 RMK AO2 SNE26 SLP990 P0000 T00170000 $
KALB 121648Z 17007KT 5SM -RA BR FEW006 BKN016 OVC036 02/00 A2950 RMK AO2 SNE26 P0000 $
KALB 121622Z 17009KT 4SM -RASN BR SCT006 BKN014 OVC036 01/00 A2952 RMK AO2 P0000 T00110000 $
KALB 121603Z 17010KT 2 1/2SM -RASN BR FEW004 SCT006 OVC014 01/M01 A2953 RMK AO2 SFC VIS 4 SCT V BKN P0000 T00111006 $
KALB 121551Z 17009KT 2 1/2SM -RASN BR FEW004 BKN006 OVC017 01/M01 A2954 RMK AO2 RAB47 SLP005 P0001 T00111006
KALB 121451Z 17009KT 1SM R01/P6000FT -SN BR SCT004 OVC006 01/M01 A2957 RMK AO2 SFC VIS 1 1/2 SLP015 P0001 60003 T00061006 58031
KALB 121414Z 17007KT 1SM R01/P6000FT -SN BR BKN005 OVC010 01/M01 A2959 RMK AO2 VIS 3/4V1 1/4 P0001 T00061011
KALB 121402Z 16007KT 3/4SM R01/3500VP6000FT -SN BR BKN006 OVC012 00/M01 A2959 RMK AO2 VIS 1/2V1 P0000 T00001011
KALB 121351Z 17006KT 1SM R01/P6000FT -SN BR BKN006 OVC012 00/M02 A2960 RMK AO2 SFC VIS 1 1/4 SLP027 VIS 1V1 1/2 P0001 T00001017
KALB 121251Z 19004KT 1 3/4SM -SN BR BKN006 BKN011 OVC017 M01/M02 A2964 RMK AO2 TWR VIS 2 SLP039 VIS 1 1/2V2 P0001 T10061022
KALB 121151Z 20006KT 2SM -SN BR OVC008 M01/M03 A2966 RMK AO2 SLP047 4/002 P0001 60004 70004 T10111028 10000 21011 58029
KALB 121140Z 19006KT 2SM -SN BR BKN008 BKN013 OVC025 M01/M02 A2966 RMK AO2 SFC VIS 3 P0000 T10061022
KALB 121130Z 18005KT 2SM -SN BR BKN010 BKN015 OVC025 M01/M02 A2967 RMK AO2 SFC VIS 3 P0000 T10061022
KALB 121112Z 17007KT 2SM -SN BR FEW012 BKN017 OVC026 00/M02 A2968 RMK AO2 SFC VIS 3 P0000 T00001022 $
KALB 121107Z 16006KT 1 1/2SM -SN BR BKN017 OVC026 00/M02 A2968 RMK AO2 TWR VIS 2 P0000 T00001022 $
KALB 121101Z 16005KT 3SM -SN BR BKN015 OVC026 00/M02 A2969 RMK AO2 SFC VIS 4 P0000 T00001022 $
KALB 121057Z 15005KT 2SM -SN FEW010 BKN015 OVC026 00/M03 A2969 RMK AO2 VIS 1 1/2V2 1/2 P0000 T00001028 $
KALB 121051Z 16006KT 1 1/2SM -SN BKN017 OVC026 00/M03 A2969 RMK AO2 TWR VIS 2 SLP058 P0001 T00001028
KALB 121020Z VRB03KT 4SM -SN BR BKN019 OVC024 M01/M03 A2972 RMK AO2 P0001 T10061028
KALB 121017Z 12003KT 2SM -SN BR SCT019 OVC024 M01/M03 A2972 RMK AO2 PRESFR P0001 T10061028
KALB 120951Z 13004KT 4SM -SN BR OVC024 M01/M03 A2975 RMK AO2 SLP076 P0002 T10111028
KALB 120903Z 13005KT 2SM R01/6000VP6000FT -SN BR BKN018 OVC027 M01/M03 A2978 RMK AO2 P0001 T10111033
KALB 120855Z 13004KT 1SM R01/6000VP6000FT -SN BKN018 OVC027 M01/M04 A2979 RMK AO2 P0000 T10111039
KALB 120851Z 14006KT 2SM -SN BKN020 BKN027 OVC033 M01/M04 A2979 RMK AO2 SLP091 VIS 1 1/2V2 1/2 P0000 60000 T10061039 58030
KALB 120751Z 14007KT 8SM -SN BKN024 BKN041 OVC050 M01/M04 A2983 RMK AO2 SLP103 P0000 T10111039
KALB 120719Z 14005KT 5SM -SN OVC039 M01/M04 A2985 RMK AO2 P0000 T10111044
KALB 120651Z VRB03KT 3SM -SN OVC028 M01/M06 A2987 RMK AO2 TWR VIS 4 SNB39 SLP118 P0000 T10111061
KALB 120551Z 00000KT 10SM OVC070 M01/M07 A2988 RMK AO2 SNE00 SLP121 4/001 P0000 60000 T10111072 11011 21017 58030
KALB 120451Z 00000KT 10SM -SN OVC060 M02/M07 A2992 RMK AO2 SNB49 SLP134 PCPN VRY LGT P0000 T10171072 400111044
KALB 120351Z 00000KT 10SM FEW050 OVC070 M01/M07 A2995 RMK AO2 SLP144 T10111072
KALB 120251Z 17003KT 10SM SCT050 OVC075 M01/M07 A2997 RMK AO2 SLP151 T10111072 58007
KALB 120151Z 17003KT 10SM BKN055 BKN080 OVC095 M02/M08 A2999 RMK AO2 SLP157 T10171078
KALB 120051Z 00000KT 10SM FEW050 OVC110 M01/M08 A2999 RMK AO2 SLP160 T10111078
KALB 112351Z COR 36003KT 10SM FEW050 SCT120 OVC130 M01/M08 A2999 RMK AO2 SLP159 4/001 60000 T10111083 10006 21017 58005